Time;durP1;ratioP1;P1;durP2;ratioP2;P2;SDS_P1;SDS_P2;PMS_P1;PMS_P2;Temp;Humidity;BMP_temperature;BMP_pressure;BME280_temperature;BME280_humidity;BME280_pressure;Samples;Min_cycle;Max_cycle;Signal;HPM_P1;HPM_P2
2022/08/23 00:02:25;;;;;;;6.90;6.20;;;19.70;99.90;;;;;;5097573;28;20475;-48
2022/08/23 00:04:54;;;;;;;6.60;5.33;;;19.70;99.90;;;;;;5097065;28;20518;-47
2022/08/23 00:07:24;;;;;;;7.37;6.20;;;19.70;99.90;;;;;;5095645;28;20520;-48
2022/08/23 00:09:54;;;;;;;6.10;5.50;;;19.60;99.90;;;;;;5100113;28;20551;-50
2022/08/23 00:12:22;;;;;;;5.97;5.47;;;19.60;99.90;;;;;;5097698;28;20435;-49
2022/08/23 00:14:52;;;;;;;7.07;6.37;;;19.60;99.90;;;;;;5096739;28;20468;-51
2022/08/23 00:17:19;;;;;;;6.43;5.83;;;19.50;99.90;;;;;;5081521;28;20461;-51
2022/08/23 00:19:47;;;;;;;6.43;5.83;;;19.50;99.90;;;;;;5079253;28;20496;-50
2022/08/23 00:22:18;;;;;;;7.33;6.53;;;19.40;99.90;;;;;;5093467;28;20486;-50
2022/08/23 00:24:46;;;;;;;6.67;6.07;;;19.40;99.90;;;;;;5097719;28;20446;-50
2022/08/23 00:27:15;;;;;;;7.37;6.67;;;19.30;99.90;;;;;;5083714;28;20493;-50
2022/08/23 00:29:47;;;;;;;6.30;5.70;;;19.30;99.90;;;;;;5097543;28;20919;-52
2022/08/23 00:32:17;;;;;;;6.80;5.10;;;19.20;99.90;;;;;;5096738;28;20800;-53
2022/08/23 00:34:44;;;;;;;7.23;6.37;;;19.10;99.90;;;;;;5090331;28;20455;-51
2022/08/23 00:37:17;;;;;;;6.93;5.47;;;19.10;99.90;;;;;;5101178;28;20473;-48
2022/08/23 00:39:45;;;;;;;5.50;5.00;;;19.00;99.90;;;;;;5092591;28;20444;-52
2022/08/23 00:47:49;;;;;;;7.20;5.90;;;18.80;99.90;;;;;;5081086;28;20758;-53
2022/08/23 00:50:24;;;;;;;8.47;5.73;;;18.70;99.90;;;;;;5096432;28;20483;-47
2022/08/23 00:53:03;;;;;;;6.10;5.50;;;18.60;99.90;;;;;;5088020;28;20448;-52
2022/08/23 00:55:32;;;;;;;7.20;5.30;;;18.50;99.90;;;;;;5093387;28;20447;-49
2022/08/23 00:58:01;;;;;;;6.67;6.03;;;18.50;99.90;;;;;;5089278;28;20509;-47
2022/08/23 01:00:28;;;;;;;6.57;5.90;;;18.30;99.90;;;;;;5092862;28;20482;-47
2022/08/23 01:02:56;;;;;;;10.73;6.60;;;18.20;99.90;;;;;;5095440;28;20754;-56
2022/08/23 01:05:34;;;;;;;6.30;5.63;;;18.10;99.90;;;;;;5092735;28;20470;-53
2022/08/23 01:08:03;;;;;;;6.50;5.90;;;18.10;99.90;;;;;;5101337;28;20486;-50
2022/08/23 01:10:42;;;;;;;6.87;5.80;;;18.10;99.90;;;;;;5095700;28;20770;-53
2022/08/23 01:13:15;;;;;;;7.43;6.13;;;18.10;99.90;;;;;;5097753;28;20435;-50
2022/08/23 01:15:48;;;;;;;6.70;6.10;;;18.00;99.90;;;;;;5096401;28;20526;-52
2022/08/23 01:18:18;;;;;;;7.73;5.80;;;18.00;99.90;;;;;;5086186;28;20545;-53
2022/08/23 01:20:55;;;;;;;6.90;5.93;;;17.80;99.90;;;;;;5082259;28;20499;-50
2022/08/23 01:23:31;;;;;;;6.30;5.67;;;17.80;99.90;;;;;;5098866;28;20443;-48
2022/08/23 01:25:58;;;;;;;6.33;5.83;;;17.70;99.90;;;;;;5084065;28;20439;-48
2022/08/23 01:28:26;;;;;;;5.97;5.47;;;17.60;99.90;;;;;;5093734;28;20517;-49
2022/08/23 01:30:53;;;;;;;6.70;6.13;;;17.60;99.90;;;;;;5099049;28;20562;-52
2022/08/23 01:33:21;;;;;;;7.07;6.47;;;17.50;99.90;;;;;;5093653;28;20488;-49
2022/08/23 01:35:52;;;;;;;6.17;5.67;;;17.40;99.90;;;;;;5095431;28;20549;-49
2022/08/23 01:38:19;;;;;;;8.60;6.73;;;17.40;99.90;;;;;;5094349;28;20970;-48
2022/08/23 01:40:50;;;;;;;7.27;6.57;;;17.40;99.90;;;;;;5100377;28;20529;-51
2022/08/23 01:43:20;;;;;;;8.03;7.33;;;17.40;99.90;;;;;;5097768;28;20439;-50
2022/08/23 01:45:48;;;;;;;7.60;6.70;;;17.40;99.90;;;;;;5080144;28;20439;-48
2022/08/23 01:48:16;;;;;;;7.00;6.30;;;17.40;99.90;;;;;;5096404;28;20584;-49
2022/08/23 01:50:44;;;;;;;9.20;7.20;;;17.30;99.90;;;;;;5094970;28;20943;-48
2022/08/23 01:53:12;;;;;;;7.90;6.63;;;17.30;99.90;;;;;;5096495;28;20439;-47
2022/08/23 01:55:44;;;;;;;7.50;6.43;;;17.30;99.90;;;;;;5090074;28;20469;-51
2022/08/23 01:58:13;;;;;;;6.97;5.90;;;17.20;99.90;;;;;;5096177;28;20461;-51
2022/08/23 02:00:43;;;;;;;6.97;6.27;;;17.20;99.90;;;;;;5090601;28;20829;-53
2022/08/23 02:03:11;;;;;;;5.97;5.47;;;17.30;99.90;;;;;;5096418;28;20472;-52
2022/08/23 02:05:39;;;;;;;6.27;5.57;;;17.30;99.90;;;;;;5097358;28;20465;-51
2022/08/23 02:10:52;;;;;;;6.60;5.90;;;17.20;99.90;;;;;;5093644;28;20422;-51
2022/08/23 02:13:22;;;;;;;5.63;5.13;;;17.20;99.90;;;;;;5093953;28;20476;-53
2022/08/23 02:15:53;;;;;;;6.10;5.00;;;17.20;99.90;;;;;;5096447;28;20907;-55
2022/08/23 02:18:23;;;;;;;6.87;5.10;;;17.10;99.90;;;;;;5088093;28;20490;-48
2022/08/23 02:20:55;;;;;;;6.57;5.90;;;17.10;99.90;;;;;;5092098;28;20488;-49
2022/08/23 02:23:23;;;;;;;7.80;6.47;;;17.10;99.90;;;;;;5096172;28;20522;-48
2022/08/23 02:25:51;;;;;;;8.43;5.30;;;17.20;99.90;;;;;;5092640;28;20454;-51
2022/08/23 02:28:25;;;;;;;6.20;4.57;;;17.30;99.90;;;;;;5094422;28;20932;-50
2022/08/23 02:30:52;;;;;;;5.80;5.20;;;17.30;99.90;;;;;;5096130;28;20948;-48
2022/08/23 02:33:20;;;;;;;4.97;4.37;;;17.40;99.90;;;;;;5094555;28;20492;-56
2022/08/23 02:35:50;;;;;;;6.10;5.50;;;17.40;99.90;;;;;;5095117;28;20521;-49
2022/08/23 02:38:18;;;;;;;8.43;5.10;;;17.40;99.90;;;;;;5101161;28;20464;-53
2022/08/23 02:40:45;;;;;;;5.30;4.80;;;17.40;99.90;;;;;;5093692;28;20811;-51
2022/08/23 02:43:12;;;;;;;7.43;4.80;;;17.30;99.90;;;;;;5098711;28;20457;-49
2022/08/23 02:45:41;;;;;;;6.30;5.00;;;17.30;99.90;;;;;;5100240;28;20505;-53
2022/08/23 02:48:09;;;;;;;6.00;4.67;;;17.30;99.90;;;;;;5088727;28;20495;-51
2022/08/23 02:50:37;;;;;;;5.60;4.80;;;17.20;99.90;;;;;;5082935;28;20884;-48
2022/08/23 02:53:06;;;;;;;5.00;4.60;;;17.20;99.90;;;;;;5099049;28;20884;-55
2022/08/23 02:55:34;;;;;;;8.20;4.40;;;17.10;99.90;;;;;;5100163;28;20534;-54
2022/08/23 02:58:04;;;;;;;4.83;4.17;;;17.10;99.90;;;;;;5084077;28;20472;-50
2022/08/23 03:00:32;;;;;;;6.47;5.87;;;17.10;99.90;;;;;;5098031;28;20469;-48
2022/08/23 03:03:02;;;;;;;7.10;5.90;;;17.00;99.90;;;;;;5097177;28;20878;-53
2022/08/23 03:05:30;;;;;;;4.53;4.13;;;17.00;99.90;;;;;;5100404;28;20464;-48
2022/08/23 03:07:59;;;;;;;5.10;4.67;;;17.00;99.90;;;;;;5093024;28;20565;-53
2022/08/23 03:10:26;;;;;;;5.43;4.23;;;17.00;99.90;;;;;;5101799;28;20905;-52
2022/08/23 03:12:53;;;;;;;4.90;4.40;;;17.00;99.90;;;;;;5099528;28;20853;-53
2022/08/23 03:15:21;;;;;;;6.27;5.03;;;16.90;99.90;;;;;;5086854;28;20452;-50
2022/08/23 03:17:48;;;;;;;4.90;4.50;;;16.90;99.90;;;;;;5080990;28;20440;-54
2022/08/23 03:20:18;;;;;;;5.57;5.00;;;17.00;99.90;;;;;;5088829;28;20496;-54
2022/08/23 03:22:45;;;;;;;10.33;4.53;;;16.90;99.90;;;;;;5099553;28;20439;-48
2022/08/23 03:25:13;;;;;;;5.03;4.50;;;16.80;99.90;;;;;;5097522;28;20567;-49
2022/08/23 03:27:41;;;;;;;4.87;4.40;;;16.80;99.90;;;;;;5100201;28;20787;-49
2022/08/23 03:30:09;;;;;;;6.30;4.63;;;16.90;99.90;;;;;;5101230;28;20759;-54
2022/08/23 03:32:38;;;;;;;5.53;4.60;;;16.80;99.90;;;;;;5098123;28;20500;-50
2022/08/23 03:35:07;;;;;;;5.93;4.80;;;16.80;99.90;;;;;;5098957;28;20517;-53
2022/08/23 03:37:36;;;;;;;5.80;4.40;;;16.70;99.90;;;;;;5100458;28;20518;-49
2022/08/23 03:40:07;;;;;;;5.50;5.00;;;16.70;99.90;;;;;;5103033;28;20899;-54
2022/08/23 03:42:35;;;;;;;5.20;4.80;;;16.70;99.90;;;;;;5081036;28;20857;-52
2022/08/23 03:45:02;;;;;;;5.30;4.40;;;16.70;99.90;;;;;;5092576;28;20512;-51
2022/08/23 03:47:29;;;;;;;5.07;4.63;;;16.70;99.90;;;;;;5099051;28;20574;-51
2022/08/23 03:49:57;;;;;;;7.17;4.77;;;16.60;99.90;;;;;;5099819;28;20439;-50
2022/08/23 03:52:32;;;;;;;5.60;4.43;;;16.70;99.90;;;;;;5098520;28;20464;-48
2022/08/23 03:55:00;;;;;;;6.20;4.30;;;16.70;99.90;;;;;;5099328;28;20896;-49
2022/08/23 03:57:28;;;;;;;4.90;4.50;;;16.70;99.90;;;;;;5099441;28;20529;-51
2022/08/23 03:59:58;;;;;;;5.33;4.83;;;16.70;99.90;;;;;;5099974;28;20568;-49
2022/08/23 04:02:28;;;;;;;5.10;4.60;;;16.60;99.90;;;;;;5098417;28;20551;-48
2022/08/23 04:04:56;;;;;;;6.03;4.30;;;16.60;99.90;;;;;;5099114;28;20439;-51
2022/08/23 04:07:24;;;;;;;14.43;4.60;;;16.60;99.90;;;;;;5099333;28;20528;-53
2022/08/23 04:09:51;;;;;;;5.50;4.53;;;16.60;99.90;;;;;;5099672;28;20438;-51
2022/08/23 04:12:21;;;;;;;5.00;4.57;;;16.60;99.90;;;;;;5097501;28;20976;-54
2022/08/23 04:14:49;;;;;;;5.50;5.00;;;16.60;99.90;;;;;;5119558;27;20957;-50
2022/08/23 04:17:19;;;;;;;6.23;5.20;;;16.70;99.90;;;;;;5104041;28;20740;-53
2022/08/23 04:19:48;;;;;;;4.80;4.40;;;16.60;99.90;;;;;;5094167;28;20490;-52
2022/08/23 04:22:16;;;;;;;6.60;4.60;;;16.60;99.90;;;;;;5092989;28;20472;-50
2022/08/23 04:24:44;;;;;;;6.10;5.47;;;16.50;99.90;;;;;;5095076;28;20499;-50
2022/08/23 04:27:14;;;;;;;5.07;4.57;;;16.60;99.90;;;;;;5086824;28;20488;-48
2022/08/23 04:29:44;;;;;;;4.90;4.50;;;16.60;99.90;;;;;;5093050;28;20556;-48
2022/08/23 04:32:13;;;;;;;4.90;4.50;;;16.70;99.90;;;;;;5078179;28;20873;-50
2022/08/23 04:34:41;;;;;;;5.77;4.70;;;16.60;99.90;;;;;;5080399;28;20469;-52
2022/08/23 04:37:08;;;;;;;4.27;3.87;;;16.60;99.90;;;;;;5098075;28;20537;-53
2022/08/23 04:42:16;;;;;;;4.70;4.20;;;16.60;99.90;;;;;;5093775;28;20551;-53
2022/08/23 04:42:28;;;;;;;9.50;4.07;;;16.60;99.90;;;;;;5094547;28;20490;-47
2022/08/23 04:45:00;;;;;;;4.70;4.30;;;16.60;99.90;;;;;;5095503;28;20471;-51
2022/08/23 04:47:28;;;;;;;4.87;4.47;;;16.50;99.90;;;;;;5095179;28;20975;-47
2022/08/23 04:49:55;;;;;;;4.93;4.53;;;16.50;99.90;;;;;;5096912;28;20461;-49
2022/08/23 04:52:24;;;;;;;5.73;4.70;;;16.60;99.90;;;;;;5097566;28;20442;-54
2022/08/23 04:54:51;;;;;;;8.53;4.70;;;16.60;99.90;;;;;;5096305;28;20456;-55
2022/08/23 04:57:19;;;;;;;5.20;4.80;;;16.60;99.90;;;;;;5097608;28;20457;-50
2022/08/23 04:59:48;;;;;;;5.23;4.67;;;16.60;99.90;;;;;;5092467;28;20472;-50
2022/08/23 05:02:22;;;;;;;4.73;4.20;;;16.60;99.90;;;;;;5094780;28;20526;-51
2022/08/23 05:04:49;;;;;;;5.70;5.10;;;16.60;99.90;;;;;;5108594;28;20471;-51
2022/08/23 05:07:16;;;;;;;7.90;5.30;;;16.60;99.90;;;;;;5094337;28;20447;-48
2022/08/23 05:09:44;;;;;;;5.80;5.30;;;16.50;99.90;;;;;;5091096;28;20749;-51
2022/08/23 05:12:16;;;;;;;5.33;4.83;;;16.50;99.90;;;;;;5093457;28;20460;-51
2022/08/23 05:14:49;;;;;;;5.10;4.53;;;16.60;99.90;;;;;;5091099;28;20902;-50
2022/08/23 05:17:16;;;;;;;4.43;4.00;;;16.70;99.90;;;;;;5093573;28;20570;-54
2022/08/23 05:19:46;;;;;;;5.13;4.13;;;16.70;99.90;;;;;;5088143;28;20567;-48
2022/08/23 05:22:14;;;;;;;4.80;4.40;;;16.80;99.90;;;;;;5090552;28;20469;-50
2022/08/23 05:24:41;;;;;;;8.03;4.87;;;16.90;99.90;;;;;;5098826;28;20472;-54
2022/08/23 05:27:10;;;;;;;7.90;5.50;;;17.00;99.90;;;;;;5089760;28;21162;-49
2022/08/23 05:29:37;;;;;;;6.83;5.43;;;17.10;99.90;;;;;;5079994;28;21085;-50
2022/08/23 05:32:05;;;;;;;5.63;4.83;;;17.20;99.90;;;;;;5081403;28;20467;-54
2022/08/23 05:34:36;;;;;;;5.80;3.90;;;17.30;99.90;;;;;;5093739;28;20446;-51
2022/08/23 05:37:04;;;;;;;5.27;4.70;;;17.30;99.90;;;;;;5091712;28;20768;-50
2022/08/23 05:39:34;;;;;;;4.87;4.40;;;17.40;99.90;;;;;;5095201;28;20785;-54
2022/08/23 05:42:05;;;;;;;4.70;4.20;;;17.50;99.90;;;;;;5095399;28;20471;-49
2022/08/23 05:44:32;;;;;;;4.43;4.13;;;17.50;99.90;;;;;;5091474;28;20447;-50
2022/08/23 05:47:02;;;;;;;4.50;4.03;;;17.60;99.90;;;;;;5095783;28;20543;-54
2022/08/23 05:49:30;;;;;;;4.47;4.10;;;17.70;99.90;;;;;;5097210;28;20491;-54
2022/08/23 05:51:58;;;;;;;4.63;4.07;;;17.90;99.90;;;;;;5096584;28;20836;-48
2022/08/23 05:54:29;;;;;;;4.30;3.83;;;18.00;99.90;;;;;;5097740;28;20472;-54
2022/08/23 05:56:58;;;;;;;4.30;3.90;;;18.00;99.90;;;;;;5097542;28;20469;-49
2022/08/23 05:59:28;;;;;;;4.50;4.10;;;18.10;99.90;;;;;;5096394;28;20439;-51
2022/08/23 06:02:00;;;;;;;4.07;3.67;;;18.20;99.90;;;;;;5095363;28;20558;-56
2022/08/23 06:04:27;;;;;;;5.50;3.83;;;18.40;99.90;;;;;;5095800;28;20835;-51
2022/08/23 06:06:57;;;;;;;6.13;4.87;;;18.50;99.90;;;;;;5095745;28;20551;-51
2022/08/23 06:09:27;;;;;;;4.50;3.77;;;18.60;99.90;;;;;;5096164;28;20484;-54
2022/08/23 06:11:58;;;;;;;4.63;4.00;;;18.80;99.90;;;;;;5077663;28;20442;-52
2022/08/23 06:14:27;;;;;;;4.50;3.53;;;19.00;99.90;;;;;;5079647;28;20465;-53
2022/08/23 06:16:55;;;;;;;4.50;3.50;;;19.10;99.90;;;;;;5087496;28;20547;-54
2022/08/23 06:19:22;;;;;;;7.50;4.40;;;19.30;99.90;;;;;;5102235;28;20957;-57
2022/08/23 06:21:54;;;;;;;7.00;3.80;;;19.50;99.90;;;;;;5099919;28;20734;-53
2022/08/23 06:24:23;;;;;;;4.90;3.97;;;19.80;99.90;;;;;;5099847;28;20443;-51
2022/08/23 06:26:51;;;;;;;4.90;3.77;;;20.10;99.90;;;;;;5099300;28;20608;-53
2022/08/23 06:29:20;;;;;;;3.70;3.07;;;20.40;99.90;;;;;;5100404;28;20793;-58
2022/08/23 06:31:49;;;;;;;4.13;3.00;;;20.60;99.90;;;;;;5099760;28;20893;-55
2022/08/23 06:34:21;;;;;;;5.40;3.77;;;20.90;99.90;;;;;;5100444;28;20890;-55
2022/08/23 06:36:52;;;;;;;3.87;3.47;;;21.20;99.90;;;;;;5100462;28;20945;-57
2022/08/23 06:39:21;;;;;;;4.83;3.67;;;21.40;99.90;;;;;;5098481;28;20466;-54
2022/08/23 06:41:49;;;;;;;3.73;3.33;;;21.70;99.90;;;;;;5097060;28;20886;-55
2022/08/23 06:44:19;;;;;;;4.10;3.70;;;22.00;99.90;;;;;;5080525;28;20479;-50
2022/08/23 06:46:49;;;;;;;4.10;3.67;;;22.20;99.90;;;;;;5079044;28;20876;-52
2022/08/23 06:49:17;;;;;;;3.67;3.23;;;22.50;99.90;;;;;;5094462;28;20487;-54
2022/08/23 06:51:51;;;;;;;6.60;3.80;;;22.60;99.90;;;;;;5099947;28;20803;-50
2022/08/23 06:54:22;;;;;;;5.00;3.67;;;22.70;99.90;;;;;;5098794;28;20466;-52
2022/08/23 06:56:52;;;;;;;6.00;4.40;;;23.00;99.90;;;;;;5100623;28;20442;-52
2022/08/23 06:59:24;;;;;;;3.07;2.83;;;23.10;99.90;;;;;;5099905;28;20506;-51
2022/08/23 07:01:56;;;;;;;10.90;4.40;;;23.40;99.90;;;;;;5100513;28;20461;-50
2022/08/23 07:04:29;;;;;;;4.00;3.50;;;23.50;99.90;;;;;;5099856;28;20461;-53
2022/08/23 07:06:57;;;;;;;4.60;3.80;;;23.70;99.90;;;;;;5089863;28;20745;-54
2022/08/23 07:09:25;;;;;;;3.50;2.80;;;23.90;99.90;;;;;;5086545;28;20485;-49
2022/08/23 07:11:56;;;;;;;4.33;3.90;;;24.00;99.90;;;;;;5091539;28;20519;-52
2022/08/23 07:14:28;;;;;;;3.53;3.13;;;24.20;99.90;;;;;;5102833;28;20496;-52
2022/08/23 07:17:02;;;;;;;5.23;3.37;;;24.60;99.90;;;;;;5088357;28;20539;-54
2022/08/23 07:19:31;;;;;;;3.87;3.20;;;24.80;99.90;;;;;;5080277;28;20495;-51
2022/08/23 07:22:01;;;;;;;3.20;2.90;;;25.00;99.90;;;;;;5096471;28;20563;-49
2022/08/23 07:24:33;;;;;;;4.77;2.93;;;25.10;99.90;;;;;;5099066;28;20480;-51
2022/08/23 07:27:05;;;;;;;3.50;3.10;;;25.10;99.90;;;;;;5098904;28;20479;-52
2022/08/23 07:29:37;;;;;;;4.00;3.70;;;25.40;99.90;;;;;;5098461;28;20503;-53
2022/08/23 07:32:05;;;;;;;3.87;3.47;;;25.60;99.90;;;;;;5095691;28;20565;-50
2022/08/23 07:34:34;;;;;;;3.67;3.33;;;25.80;99.90;;;;;;5096241;28;20474;-50
2022/08/23 07:37:01;;;;;;;3.77;3.17;;;25.80;99.90;;;;;;5095745;28;20473;-51
2022/08/23 07:39:30;;;;;;;4.00;3.60;;;25.80;99.90;;;;;;5091935;28;20497;-54
2022/08/23 07:41:59;;;;;;;3.93;2.93;;;25.80;99.90;;;;;;5095468;28;20457;-54
2022/08/23 07:44:28;;;;;;;5.80;3.17;;;25.80;99.90;;;;;;5098038;28;20464;-49
2022/08/23 07:46:57;;;;;;;3.17;2.87;;;26.10;99.90;;;;;;5098034;28;20469;-51
2022/08/23 07:49:24;;;;;;;3.70;3.40;;;26.30;99.90;;;;;;5099629;28;20750;-55
2022/08/23 07:51:57;;;;;;;4.13;3.73;;;26.50;99.90;;;;;;5087125;28;20789;-55
2022/08/23 07:54:24;;;;;;;3.87;3.47;;;26.60;99.90;;;;;;5095702;28;20464;-53
2022/08/23 07:56:53;;;;;;;4.80;3.40;;;26.60;99.90;;;;;;5097634;28;20816;-54
2022/08/23 07:59:23;;;;;;;6.37;3.30;;;26.80;99.90;;;;;;5098146;28;20449;-51
2022/08/23 08:01:53;;;;;;;5.00;4.27;;;26.80;99.90;;;;;;5095148;28;20460;-52
2022/08/23 08:04:26;;;;;;;5.70;3.30;;;27.10;99.90;;;;;;5098551;28;20472;-51
2022/08/23 08:06:53;;;;;;;4.10;3.70;;;27.00;99.90;;;;;;5096346;28;20774;-55
2022/08/23 08:09:27;;;;;;;3.87;3.57;;;27.20;99.90;;;;;;5094851;28;20968;-54
2022/08/23 08:11:55;;;;;;;4.80;3.60;;;27.60;99.90;;;;;;5078398;28;20465;-51
2022/08/23 08:14:22;;;;;;;4.47;3.40;;;27.90;99.90;;;;;;5093353;28;20508;-53
2022/08/23 08:16:54;;;;;;;7.00;3.90;;;28.10;99.90;;;;;;5096258;28;20469;-58
2022/08/23 08:19:25;;;;;;;4.80;4.40;;;28.20;99.90;;;;;;5080155;28;20472;-59
2022/08/23 08:21:56;;;;;;;3.83;3.53;;;28.50;99.90;;;;;;5078939;28;20930;-53
2022/08/23 08:24:23;;;;;;;4.13;3.60;;;28.50;99.90;;;;;;5091871;28;20469;-53
2022/08/23 08:26:50;;;;;;;4.47;3.90;;;28.60;99.90;;;;;;5094520;28;20468;-55
2022/08/23 08:29:18;;;;;;;4.30;3.87;;;28.50;99.90;;;;;;5092690;28;20488;-54
2022/08/23 08:31:46;;;;;;;5.83;3.80;;;28.80;99.90;;;;;;5096344;28;20575;-51
2022/08/23 08:34:18;;;;;;;3.80;3.40;;;29.00;99.90;;;;;;5094512;28;20475;-50
2022/08/23 08:36:50;;;;;;;4.40;4.00;;;29.20;99.90;;;;;;5098149;28;20916;-51
2022/08/23 08:39:24;;;;;;;4.27;3.87;;;29.10;99.90;;;;;;5095726;28;20456;-57
2022/08/23 08:42:07;;;;;;;7.00;3.90;;;29.60;99.90;;;;;;5097746;28;20476;-57
2022/08/23 08:44:40;;;;;;;4.13;3.83;;;29.60;99.90;;;;;;5096004;28;20559;-55
2022/08/23 08:47:15;;;;;;;4.00;3.60;;;29.60;99.90;;;;;;5097732;28;20554;-57
2022/08/23 08:49:47;;;;;;;4.27;3.87;;;29.70;99.90;;;;;;5097266;28;20480;-55
2022/08/23 08:52:26;;;;;;;4.17;3.77;;;29.80;99.90;;;;;;5097660;28;20936;-52
2022/08/23 08:55:00;;;;;;;4.57;3.70;;;29.70;99.90;;;;;;5097690;28;20543;-53
2022/08/23 08:57:33;;;;;;;5.63;4.57;;;29.60;99.90;;;;;;5097272;28;20901;-57
2022/08/23 09:00:05;;;;;;;5.40;3.50;;;29.50;99.90;;;;;;5098001;28;20452;-55
2022/08/23 09:02:40;;;;;;;4.10;3.80;;;29.90;99.90;;;;;;5097182;28;20559;-56
2022/08/23 09:05:13;;;;;;;4.33;3.93;;;30.20;99.90;;;;;;5097494;28;20889;-55
2022/08/23 09:08:02;;;;;;;5.20;3.67;;;30.40;99.90;;;;;;5098813;28;20539;-54
2022/08/23 09:10:47;;;;;;;3.87;3.47;;;30.50;99.90;;;;;;5094517;28;20496;-53
2022/08/23 09:13:45;;;;;;;3.67;3.30;;;30.50;99.90;;;;;;5086508;28;20893;-55
2022/08/23 09:16:23;;;;;;;4.70;4.20;;;30.80;99.90;;;;;;5097497;28;20847;-52
2022/08/23 09:18:56;;;;;;;4.47;4.17;;;30.80;99.90;;;;;;5096643;28;20464;-55
2022/08/23 09:21:24;;;;;;;5.07;3.90;;;30.80;99.90;;;;;;5093757;28;20472;-50
2022/08/23 09:23:56;;;;;;;4.63;4.23;;;30.70;99.90;;;;;;5097027;28;20471;-57
2022/08/23 09:26:26;;;;;;;5.77;3.70;;;30.60;99.90;;;;;;5097736;28;20464;-54
2022/08/23 09:29:01;;;;;;;4.50;4.10;;;30.90;99.90;;;;;;5097608;28;20489;-58
2022/08/23 09:31:49;;;;;;;4.80;3.40;;;31.20;99.90;;;;;;5096476;28;20467;-55
2022/08/23 09:34:21;;;;;;;5.23;3.70;;;31.50;99.90;;;;;;5088861;28;20526;-56
2022/08/23 09:36:49;;;;;;;5.17;4.20;;;31.50;99.90;;;;;;5088951;28;20917;-59
2022/08/23 09:39:37;;;;;;;9.37;3.87;;;31.80;99.90;;;;;;5097953;28;20460;-56
2022/08/23 09:42:11;;;;;;;3.77;3.47;;;32.30;99.90;;;;;;5096869;28;20863;-58
2022/08/23 09:44:42;;;;;;;4.63;3.83;;;32.20;99.90;;;;;;5097012;28;20460;-58
2022/08/23 09:47:13;;;;;;;7.10;4.23;;;32.20;99.90;;;;;;5097178;28;20460;-51
2022/08/23 09:49:42;;;;;;;4.13;3.83;;;32.20;99.90;;;;;;5096930;28;20463;-57
2022/08/23 09:52:21;;;;;;;4.10;3.70;;;32.40;99.90;;;;;;5096701;28;20464;-53
2022/08/23 09:54:57;;;;;;;4.03;3.70;;;32.70;99.90;;;;;;5094585;28;20953;-59
2022/08/23 09:57:27;;;;;;;4.20;3.80;;;33.00;99.90;;;;;;5097239;28;20566;-53
2022/08/23 09:59:56;;;;;;;4.13;3.83;;;33.20;99.90;;;;;;5097527;28;20464;-55
2022/08/23 10:02:29;;;;;;;5.03;4.30;;;33.00;99.90;;;;;;5096421;28;20475;-51
2022/08/23 10:05:05;;;;;;;4.93;4.43;;;32.90;99.90;;;;;;5097472;28;20559;-56
2022/08/23 10:07:39;;;;;;;4.80;4.17;;;32.80;99.90;;;;;;5097629;28;20463;-57
2022/08/23 10:10:28;;;;;;;5.93;3.63;;;33.20;99.90;;;;;;5097022;28;20519;-58
2022/08/23 10:12:59;;;;;;;4.50;3.70;;;33.60;99.90;;;;;;5096764;28;20521;-55
2022/08/23 10:15:36;;;;;;;6.07;4.23;;;33.90;99.90;;;;;;5095534;28;20565;-56
2022/08/23 10:18:11;;;;;;;4.90;3.43;;;34.30;99.90;;;;;;5096480;28;20460;-58
2022/08/23 10:20:48;;;;;;;4.00;3.70;;;33.90;99.90;;;;;;5095149;28;20573;-53
2022/08/23 10:23:32;;;;;;;5.17;3.80;;;34.10;99.90;;;;;;5093949;28;20911;-53
2022/08/23 10:26:01;;;;;;;4.43;4.00;;;33.90;99.90;;;;;;5094012;28;20471;-54
2022/08/23 10:31:36;;;;;;;4.20;3.80;;;34.40;99.90;;;;;;5076059;28;20444;-53
2022/08/23 10:34:19;;;;;;;3.90;3.60;;;34.10;99.90;;;;;;5083076;28;20460;-57
2022/08/23 10:36:55;;;;;;;4.20;3.50;;;34.10;99.90;;;;;;5094460;28;20466;-60
2022/08/23 10:39:27;;;;;;;4.33;3.93;;;34.10;99.90;;;;;;5094356;28;20491;-55
2022/08/23 10:42:04;;;;;;;4.63;4.23;;;33.90;99.90;;;;;;5079715;28;20480;-54
2022/08/23 10:44:46;;;;;;;5.93;4.63;;;34.30;99.90;;;;;;5095779;28;20463;-55
2022/08/23 10:47:26;;;;;;;5.40;4.07;;;34.90;99.90;;;;;;5093523;28;20534;-56
2022/08/23 10:50:05;;;;;;;5.40;4.17;;;35.20;99.90;;;;;;5095349;28;20940;-53
2022/08/23 10:52:37;;;;;;;5.70;4.50;;;34.80;99.90;;;;;;5095767;28;20497;-56
2022/08/23 10:55:16;;;;;;;4.63;4.10;;;34.80;99.90;;;;;;5096253;28;20205;-60
2022/08/23 10:57:53;;;;;;;4.50;4.10;;;34.60;99.90;;;;;;5098840;28;20562;-60
2022/08/23 11:00:25;;;;;;;4.40;4.10;;;34.90;99.90;;;;;;5100323;28;20736;-58
2022/08/23 11:03:01;;;;;;;6.67;4.43;;;35.20;99.90;;;;;;5099772;28;20537;-56
2022/08/23 11:05:31;;;;;;;4.20;3.90;;;35.20;99.90;;;;;;5098279;28;20459;-57
2022/08/23 11:08:03;;;;;;;4.57;4.03;;;35.30;99.90;;;;;;5099579;28;20531;-55
2022/08/23 11:10:44;;;;;;;4.37;4.00;;;35.60;99.90;;;;;;5099993;28;20501;-59
2022/08/23 11:13:23;;;;;;;4.20;3.80;;;35.80;99.90;;;;;;5098710;28;20208;-60
2022/08/23 11:16:05;;;;;;;4.30;3.90;;;36.00;99.90;;;;;;5099254;28;20197;-60
2022/08/23 11:18:41;;;;;;;3.50;3.20;;;36.00;99.90;;;;;;5097574;28;20206;-60
2022/08/23 11:21:32;;;;;;;3.93;3.63;;;35.90;99.90;;;;;;5094087;28;20205;-58
2022/08/23 11:24:44;;;;;;;5.33;4.53;;;35.50;99.90;;;;;;5091348;28;20300;-59
2022/08/23 11:27:32;;;;;;;5.33;3.77;;;35.50;99.90;;;;;;5006746;28;20212;-59
2022/08/23 11:30:44;;;;;;;5.30;3.93;;;35.60;99.90;;;;;;5087331;28;20214;-59
2022/08/23 11:33:20;;;;;;;4.03;3.70;;;35.90;99.90;;;;;;5092201;28;20996;-55
2022/08/23 11:35:53;;;;;;;4.27;3.57;;;35.80;99.90;;;;;;5096251;28;20202;-60
2022/08/23 11:38:56;;;;;;;5.43;4.97;;;35.60;99.90;;;;;;5095783;28;20439;-61
2022/08/23 11:41:25;;;;;;;3.93;3.63;;;35.60;99.90;;;;;;5093770;28;20467;-55
2022/08/23 11:44:21;;;;;;;4.57;4.13;;;35.80;99.90;;;;;;5094182;28;20441;-60
2022/08/23 11:47:02;;;;;;;4.20;3.90;;;35.70;99.90;;;;;;5088621;28;20455;-61
2022/08/23 11:50:07;;;;;;;4.37;3.67;;;35.80;99.90;;;;;;5075500;28;20222;-60
2022/08/23 11:52:58;;;;;;;5.10;3.73;;;35.80;99.90;;;;;;5097927;28;20498;-61
2022/08/23 11:55:42;;;;;;;4.00;3.70;;;35.50;99.90;;;;;;5096318;28;20299;-59
2022/08/23 11:58:22;;;;;;;5.60;5.10;;;35.50;99.90;;;;;;5096181;28;20459;-61
2022/08/23 12:01:08;;;;;;;3.83;3.63;;;35.70;99.90;;;;;;5095664;28;20456;-61
2022/08/23 12:03:52;;;;;;;4.00;3.70;;;35.10;99.90;;;;;;5095994;28;20548;-61
2022/08/23 12:06:42;;;;;;;4.17;3.87;;;35.00;99.90;;;;;;5078350;28;20813;-61
2022/08/23 12:09:36;;;;;;;4.90;4.30;;;35.10;99.90;;;;;;5096357;28;20445;-57
2022/08/23 12:12:24;;;;;;;4.30;4.00;;;34.90;99.90;;;;;;5095754;28;20521;-59
2022/08/23 12:14:57;;;;;;;4.43;4.03;;;35.20;99.90;;;;;;5096168;28;20430;-58
2022/08/23 12:18:04;;;;;;;5.70;4.50;;;34.10;99.90;;;;;;5098636;28;20550;-58
2022/08/23 12:20:37;;;;;;;5.30;4.80;;;34.40;99.90;;;;;;5097222;28;20450;-61
2022/08/23 12:23:19;;;;;;;4.23;3.90;;;34.80;99.90;;;;;;5097691;28;20462;-61
2022/08/23 12:25:46;;;;;;;6.47;5.20;;;34.90;99.90;;;;;;5097787;28;20459;-60
2022/08/23 12:28:43;;;;;;;5.90;5.50;;;35.20;99.90;;;;;;5098203;28;20551;-54
2022/08/23 12:31:23;;;;;;;4.30;4.00;;;34.40;99.90;;;;;;5095037;28;20537;-53
2022/08/23 12:34:12;;;;;;;3.93;3.47;;;34.80;99.90;;;;;;5097824;28;20430;-54
2022/08/23 12:36:53;;;;;;;4.23;3.83;;;34.80;99.90;;;;;;5095642;28;20459;-55
2022/08/23 12:39:24;;;;;;;4.70;3.60;;;35.00;99.90;;;;;;5078368;28;20464;-60
2022/08/23 12:42:02;;;;;;;4.20;3.80;;;35.10;99.90;;;;;;5095880;28;20466;-59
2022/08/23 12:44:33;;;;;;;4.63;3.80;;;35.00;99.90;;;;;;5098384;28;20872;-56
2022/08/23 12:47:14;;;;;;;4.10;3.33;;;34.70;99.90;;;;;;5096736;28;20456;-54
2022/08/23 12:49:42;;;;;;;4.97;4.47;;;34.60;99.90;;;;;;5097136;28;20511;-49
2022/08/23 12:52:13;;;;;;;6.40;3.80;;;34.90;99.90;;;;;;5095946;28;20562;-55
2022/08/23 12:54:43;;;;;;;4.40;3.70;;;34.60;99.90;;;;;;5096430;28;20500;-51
2022/08/23 12:57:17;;;;;;;3.10;2.90;;;35.20;99.90;;;;;;5096714;28;20455;-54
2022/08/23 12:59:51;;;;;;;3.03;2.83;;;35.20;99.90;;;;;;5096994;28;20447;-54
2022/08/23 13:02:26;;;;;;;3.10;2.80;;;35.50;99.90;;;;;;5095924;28;20553;-60
2022/08/23 13:05:02;;;;;;;3.53;3.23;;;35.40;99.90;;;;;;5096157;28;20533;-55
2022/08/23 13:07:50;;;;;;;4.53;3.73;;;35.40;99.90;;;;;;5097484;28;20471;-53
2022/08/23 13:10:23;;;;;;;3.43;2.90;;;35.20;99.90;;;;;;5097639;28;20795;-58
2022/08/23 13:12:51;;;;;;;3.10;2.73;;;35.50;99.90;;;;;;5096872;28;20431;-57
2022/08/23 13:15:47;;;;;;;4.03;3.27;;;35.70;99.90;;;;;;5097989;28;20500;-59
2022/08/23 13:18:38;;;;;;;3.77;3.47;;;35.30;99.90;;;;;;5097496;28;20477;-54
2022/08/23 13:21:32;;;;;;;3.63;3.33;;;35.80;99.90;;;;;;5097524;28;20799;-59
2022/08/23 13:24:25;;;;;;;4.03;3.27;;;35.60;99.90;;;;;;5096771;28;20804;-58
2022/08/23 13:27:10;;;;;;;3.20;2.90;;;35.20;99.90;;;;;;5094426;28;20504;-58